createdAt,value
2023-01-08T00:05:23.556Z,21.1
2023-01-08T00:10:30.813Z,21.8
2023-01-08T00:15:53.752Z,22.2
2023-01-08T00:21:16.822Z,22.4
2023-01-08T00:26:39.530Z,22.1
2023-01-08T00:31:46.889Z,21.3
2023-01-08T00:37:10.280Z,21.9
2023-01-08T00:42:33.279Z,22.5
2023-01-08T00:47:56.376Z,22.3
2023-01-08T00:53:04.661Z,21.8
2023-01-08T00:58:27.751Z,21.4
2023-01-08T01:03:35.258Z,21.2
2023-01-08T01:08:59.578Z,21.2
2023-01-08T01:14:22.354Z,21.2
2023-01-08T01:19:30.053Z,21.9
2023-01-08T01:24:53.925Z,22.3
2023-01-08T01:30:17.018Z,22.6
2023-01-08T01:35:24.434Z,22
2023-01-08T01:40:48.290Z,21.7
2023-01-08T01:45:55.314Z,21.3
2023-01-08T01:51:18.272Z,21.3
2023-01-08T01:56:42.340Z,21.1
2023-01-08T02:02:05.629Z,21.4
2023-01-08T02:07:29.445Z,22
2023-01-08T02:12:53.742Z,22.4
2023-01-08T02:18:16.863Z,22.6
2023-01-08T02:23:23.972Z,21.9
2023-01-08T02:28:47.570Z,21.6
2023-01-08T02:34:10.031Z,21.3
2023-01-08T02:39:17.461Z,21.1
2023-01-08T02:44:25.767Z,21.1
2023-01-08T02:49:48.463Z,21.3
2023-01-08T02:55:11.500Z,21.8
2023-01-08T03:00:35.123Z,22
2023-01-08T03:05:59.811Z,20.8
2023-01-08T03:11:22.339Z,21.4
2023-01-08T03:16:46.609Z,21.9
2023-01-08T03:22:11.188Z,22.3
2023-01-08T03:27:18.877Z,22.1
2023-01-08T03:32:43.093Z,21.7
2023-01-08T03:38:04.956Z,21.3
2023-01-08T03:48:35.732Z,21.1
2023-01-08T03:53:58.408Z,21.1
2023-01-08T03:59:20.871Z,21.7
2023-01-08T04:04:46.379Z,22.2
2023-01-08T04:10:08.402Z,22.4
2023-01-08T04:15:31.118Z,22
2023-01-08T04:20:55.748Z,21.6
2023-01-08T04:31:24.468Z,20.7
2023-01-08T04:36:48.643Z,20.8
2023-01-08T04:41:55.296Z,21.2
2023-01-08T04:47:17.638Z,21.8
2023-01-08T04:52:41.596Z,22.1
2023-01-08T04:58:03.947Z,22.4
2023-01-08T05:03:28.508Z,21.9
2023-01-08T05:08:54.250Z,21.4
2023-01-08T05:14:01.845Z,21.1
2023-01-08T05:19:25.013Z,20.9
2023-01-08T05:24:51.390Z,20.6
2023-01-08T05:30:14.502Z,20.9
2023-01-08T05:35:37.439Z,21.4
2023-01-08T05:40:45.948Z,20.3
2023-01-08T05:45:53.016Z,21
2023-01-08T05:51:16.055Z,21.7
2023-01-08T05:56:42.669Z,21.8
2023-01-08T06:02:05.198Z,21.8
2023-01-08T06:07:28.139Z,21.4
2023-01-08T06:12:51.461Z,20.8
2023-01-08T06:18:14.519Z,20.9
2023-01-08T06:22:51.298Z,20.6
2023-01-08T06:27:27.806Z,20.6
2023-01-08T06:32:50.605Z,20.8
2023-01-08T06:38:13.538Z,21.3
2023-01-08T06:43:23.872Z,21.6
2023-01-08T06:48:47.120Z,21.8
2023-01-08T06:53:54.976Z,21.6
2023-01-08T06:59:38.963Z,21.3
2023-01-08T07:05:03.210Z,20.9
2023-01-08T07:10:26.422Z,20.7
2023-01-08T07:15:49.937Z,20.6
2023-01-08T07:21:13.374Z,21
2023-01-08T07:26:36.516Z,22.2
2023-01-08T07:31:53.160Z,22.3
2023-01-08T07:37:19.428Z,21.9
2023-01-08T07:42:42.870Z,21.4
2023-01-08T07:48:06.221Z,20.9
2023-01-08T07:53:13.402Z,20.6
2023-01-08T07:58:20.685Z,20.4
2023-01-08T08:03:47.356Z,20.3
2023-01-08T08:09:10.104Z,20.7
2023-01-08T08:14:33.071Z,21.1
2023-01-08T08:19:56.481Z,20
2023-01-08T08:25:19.437Z,20.8
2023-01-08T08:30:42.853Z,21.9
2023-01-08T08:36:06.230Z,21.1
2023-01-08T08:41:28.996Z,20.7
2023-01-08T08:46:54.412Z,20.4
2023-01-08T08:52:17.888Z,20.4
2023-01-08T08:57:42.178Z,20.7
2023-01-08T09:03:07.161Z,20.7
2023-01-08T09:08:31.225Z,20.6
2023-01-08T09:13:53.932Z,20.7
2023-01-08T09:19:16.551Z,21.6
2023-01-08T09:24:40.186Z,22.1
2023-01-08T09:30:02.970Z,21.7
2023-01-08T09:35:26.120Z,21.4
2023-01-08T09:46:03.059Z,20.9
2023-01-08T09:51:10.626Z,21.3
2023-01-08T09:56:44.894Z,22.4
2023-01-08T10:02:08.456Z,22.2
2023-01-08T10:07:31.825Z,21.8
2023-01-08T10:12:55.593Z,21.4
2023-01-08T10:18:19.095Z,21.2
2023-01-08T10:23:41.618Z,20.9
2023-01-08T10:28:51.639Z,20.7
2023-01-08T10:34:15.796Z,20.6
2023-01-08T10:39:40.626Z,22.2
2023-01-08T10:45:04.905Z,22.6
2023-01-08T10:50:29.072Z,21.9
2023-01-08T10:55:20.154Z,21.4
2023-01-08T11:05:51.935Z,20.9
2023-01-08T11:10:59.327Z,21
2023-01-08T11:16:22.536Z,22.3
2023-01-08T11:21:45.860Z,22.3
2023-01-08T11:27:10.332Z,21.8
2023-01-08T11:32:33.638Z,21.4
2023-01-08T11:37:56.440Z,21.2
2023-01-08T11:43:22.056Z,20.9
2023-01-08T11:48:32.063Z,20.9
2023-01-08T11:53:23.436Z,22
2023-01-08T11:58:45.591Z,22.3
2023-01-08T12:04:08.919Z,21.6
2023-01-08T12:09:30.841Z,21.3
2023-01-08T12:20:00.914Z,21
2023-01-08T12:25:22.767Z,20.9
2023-01-08T12:30:59.251Z,21.6
2023-01-08T12:36:33.388Z,22.3
2023-01-08T12:41:56.376Z,21.6
2023-01-08T12:47:30.016Z,21.3
2023-01-08T12:52:52.783Z,21.1
2023-01-08T12:58:15.379Z,20.9
2023-01-08T13:03:24.195Z,20.8
2023-01-08T13:08:47.124Z,21.8
2023-01-08T13:14:10.039Z,22.1
2023-01-08T13:19:18.008Z,21.6
2023-01-08T13:24:40.903Z,21.3
2023-01-08T13:34:54.474Z,20.9
2023-01-08T13:40:30.988Z,20.8
2023-01-08T13:45:41.954Z,21.6
2023-01-08T13:50:33.741Z,22.3
2023-01-08T13:55:40.987Z,21.7
2023-01-08T14:00:48.251Z,21.3
2023-01-08T14:11:19.550Z,20.9
2023-01-08T14:16:42.587Z,20.8
2023-01-08T14:22:05.389Z,21.9
2023-01-08T14:27:28.252Z,21.9
2023-01-08T14:32:51.205Z,21.4
2023-01-08T14:38:13.537Z,21.1
2023-01-08T14:43:21.575Z,20.9
2023-01-08T14:48:53.687Z,21.4
2023-01-08T14:54:16.352Z,21.8
2023-01-08T14:59:39.398Z,21.2
2023-01-08T15:05:05.076Z,20.9
2023-01-08T15:10:27.397Z,20.8
2023-01-08T15:15:50.360Z,21.5
2023-01-08T15:21:13.112Z,21.6
2023-01-08T15:26:20.243Z,20.8
2023-01-08T15:31:43.232Z,20.8
2023-01-08T15:36:03.890Z,20.7
2023-01-08T15:41:13.568Z,20.6
2023-01-08T15:46:22.294Z,20.6
2023-01-08T15:51:45.637Z,21.1
2023-01-08T15:57:08.652Z,21.8
2023-01-08T16:02:16.761Z,21.3
2023-01-08T16:07:24.492Z,21
2023-01-08T16:12:15.763Z,20.8
2023-01-08T16:17:24.284Z,20.6
2023-01-08T16:22:47.213Z,20.5
2023-01-08T16:28:09.288Z,20.4
2023-01-08T16:33:34.719Z,19.9
2023-01-08T16:38:57.734Z,20
2023-01-08T16:44:05.079Z,20.8
2023-01-08T16:49:27.668Z,21.4
2023-01-08T16:54:19.772Z,21.5
2023-01-08T16:59:56.032Z,21.4
2023-01-08T17:05:06.700Z,21.1
2023-01-08T17:09:59.014Z,20.9
2023-01-08T17:15:21.216Z,20.6
2023-01-08T17:20:44.249Z,20.6
2023-01-08T17:25:51.459Z,20.4
2023-01-08T17:30:58.967Z,20.6
2023-01-08T17:36:22.356Z,21.4
2023-01-08T17:41:49.520Z,21
2023-01-08T17:47:13.014Z,21.4
2023-01-08T17:52:35.186Z,21.5
2023-01-08T17:57:43.213Z,21.6
2023-01-08T18:03:08.445Z,20.8
2023-01-08T18:08:31.930Z,20.4
2023-01-08T18:13:55.131Z,20.3
2023-01-08T18:18:46.422Z,20.1
2023-01-08T18:23:54.180Z,20.1
2023-01-08T18:34:39.524Z,20.8
2023-01-08T18:39:46.994Z,21.4
2023-01-08T18:45:10.288Z,21.2
2023-01-08T18:50:33.704Z,20.7
2023-01-08T18:55:42.260Z,20.3
2023-01-08T19:00:49.959Z,20.3
2023-01-08T19:05:58.262Z,20.2
2023-01-08T19:11:21.502Z,20.1
2023-01-08T19:16:31.738Z,20.1
2023-01-08T19:21:55.475Z,20.1
2023-01-08T19:32:16.402Z,21.6
2023-01-08T19:37:39.364Z,21.1
2023-01-08T19:42:46.278Z,20.6
2023-01-08T19:48:12.415Z,20.4
2023-01-08T19:53:37.583Z,20.2
2023-01-08T19:59:03.236Z,20.1
2023-01-08T20:04:18.300Z,20
2023-01-08T20:09:33.783Z,20.6
2023-01-08T20:20:20.686Z,21.1
2023-01-08T20:25:33.908Z,20.8
2023-01-08T20:30:57.545Z,21.3
2023-01-08T20:35:51.665Z,21.7
2023-01-08T20:40:58.444Z,21.9
2023-01-08T20:46:36.138Z,21.9
2023-01-08T20:52:19.991Z,21
2023-01-08T20:57:42.073Z,21.7
2023-01-08T21:02:17.940Z,22.1
2023-01-08T21:07:25.672Z,22.3
2023-01-08T21:12:48.010Z,21.6
2023-01-08T21:17:24.580Z,21.3
2023-01-08T21:22:32.619Z,21.8
2023-01-08T21:27:23.073Z,22.2
2023-01-08T21:32:14.507Z,21.8
2023-01-08T21:37:21.575Z,21.3
2023-01-08T21:42:28.572Z,21
2023-01-08T21:47:35.790Z,20.8
2023-01-08T21:52:43.548Z,20.7
2023-01-08T21:57:52.514Z,20.6
2023-01-08T22:02:59.527Z,21.1
2023-01-08T22:08:06.599Z,21.7
2023-01-08T22:13:29.775Z,22
2023-01-08T22:18:52.575Z,22.2
2023-01-08T22:23:59.703Z,21.6
2023-01-08T22:29:07.294Z,21.3
2023-01-08T22:34:30.177Z,21.7
2023-01-08T22:39:39.452Z,22.1
2023-01-08T22:45:04.607Z,21.8
2023-01-08T22:50:12.139Z,21
2023-01-08T22:55:34.710Z,21.4
2023-01-08T23:00:57.446Z,22.1
2023-01-08T23:06:20.160Z,21.8
2023-01-08T23:11:27.721Z,21.4
2023-01-08T23:16:03.951Z,21
2023-01-08T23:21:18.078Z,20.9
2023-01-08T23:26:40.916Z,20.8
2023-01-08T23:32:04.354Z,20.9
2023-01-08T23:37:45.357Z,21.4
2023-01-08T23:42:51.530Z,21.8
2023-01-08T23:48:15.092Z,22.3
2023-01-08T23:53:21.236Z,21.6
2023-01-08T23:58:43.648Z,21.3
